Time;durP1;ratioP1;P1;durP2;ratioP2;P2;SDS_P1;SDS_P2;PMS_P1;PMS_P2;Temp;Humidity;BMP_temperature;BMP_pressure;BME280_temperature;BME280_humidity;BME280_pressure;Samples;Min_cycle;Max_cycle;Signal;HPM_P1;HPM_P2
2022/02/26 00:01:01;;;;;;;78.95;43.70;;;;;;;-2.68;100.00;99757.63;2082693;28;20217;-71
2022/02/26 00:02:03;;;;;;;92.30;45.92;;;;;;;-2.71;100.00;99752.78;2082680;28;20242;-71
2022/02/26 00:03:08;;;;;;;75.43;42.63;;;;;;;-2.71;100.00;99753.56;2083104;28;20196;-72
2022/02/26 00:04:12;;;;;;;83.68;44.75;;;;;;;-2.69;100.00;99753.41;2082880;28;20235;-67
2022/02/26 00:05:14;;;;;;;84.22;43.67;;;;;;;-2.69;100.00;99766.47;2074798;28;20266;-68
2022/02/26 00:06:16;;;;;;;78.72;44.63;;;;;;;-2.70;100.00;99757.00;2082350;28;20219;-67
2022/02/26 00:07:19;;;;;;;80.90;46.08;;;;;;;-2.67;100.00;99759.25;2083342;28;20747;-67
2022/02/26 00:08:20;;;;;;;79.47;45.13;;;;;;;-2.69;100.00;99756.81;2082659;28;20738;-67
2022/02/26 00:09:22;;;;;;;83.68;45.15;;;;;;;-2.67;100.00;99760.03;2074706;28;20192;-67
2022/02/26 00:10:25;;;;;;;88.10;46.22;;;;;;;-2.65;100.00;99767.69;2082666;28;20187;-67
2022/02/26 00:11:27;;;;;;;82.07;44.85;;;;;;;-2.65;100.00;99768.47;2082683;28;20610;-67
2022/02/26 00:12:28;;;;;;;86.40;48.53;;;;;;;-2.64;100.00;99769.28;2082725;28;20233;-68
2022/02/26 00:13:31;;;;;;;78.55;44.60;;;;;;;-2.70;100.00;99763.00;2083292;28;20188;-72
2022/02/26 00:14:33;;;;;;;90.20;46.63;;;;;;;-2.69;100.00;99767.28;2082569;28;20227;-68
2022/02/26 00:15:36;;;;;;;88.05;48.28;;;;;;;-2.72;100.00;99765.03;2074400;28;20200;-68
2022/02/26 00:16:39;;;;;;;88.07;46.53;;;;;;;-2.72;100.00;99770.25;2082670;28;20202;-68
2022/02/26 00:17:43;;;;;;;84.60;47.42;;;;;;;-2.75;100.00;99765.41;2083493;28;20191;-68
2022/02/26 00:21:09;;;;;;;91.85;46.20;;;;;;;-2.78;100.00;99767.59;2082732;28;20184;-67
2022/02/26 00:22:10;;;;;;;86.65;46.38;;;;;;;-2.83;100.00;99756.94;2083318;28;20649;-68
2022/02/26 00:23:17;;;;;;;89.00;48.27;;;;;;;-2.81;100.00;99767.97;2082527;28;20658;-68
2022/02/26 00:24:19;;;;;;;91.63;49.95;;;;;;;-2.83;100.00;99764.75;2082591;28;21018;-68
2022/02/26 00:25:21;;;;;;;92.25;49.25;;;;;;;-2.81;100.00;99767.97;2083179;28;20681;-67
2022/02/26 00:26:22;;;;;;;85.95;47.28;;;;;;;-2.83;100.00;99767.38;2082915;28;20700;-68
2022/02/26 00:27:25;;;;;;;89.88;49.58;;;;;;;-2.88;100.00;99760.91;2074301;28;20618;-68
2022/02/26 00:28:26;;;;;;;101.10;52.28;;;;;;;-2.84;100.00;99774.41;2082482;28;20310;-68
2022/02/26 00:29:32;;;;;;;89.68;51.13;;;;;;;-2.85;100.00;99776.22;2082466;28;20196;-68
2022/02/26 00:30:37;;;;;;;84.07;47.22;;;;;;;-2.85;100.00;99773.59;2090358;28;20244;-67
2022/02/26 00:31:40;;;;;;;93.32;48.42;;;;;;;-2.87;100.00;99778.22;2083002;28;20737;-68
2022/02/26 00:32:43;;;;;;;94.63;49.10;;;;;;;-2.89;100.00;99774.97;2082394;28;20206;-67
2022/02/26 00:33:47;;;;;;;97.70;50.20;;;;;;;-2.88;100.00;99773.97;2082375;28;20203;-68
2022/02/26 00:34:49;;;;;;;89.55;48.17;;;;;;;-2.90;100.00;99765.50;2081861;28;20188;-68
2022/02/26 00:35:50;;;;;;;100.82;51.38;;;;;;;-2.93;100.00;99773.75;2083086;28;20655;-67
2022/02/26 00:37:01;;;;;;;91.47;49.00;;;;;;;-2.94;100.00;99774.75;2081945;28;20233;-68
2022/02/26 00:38:03;;;;;;;97.82;49.63;;;;;;;-2.97;100.00;99780.31;2082680;28;20250;-67
2022/02/26 00:39:06;;;;;;;95.28;50.83;;;;;;;-3.00;100.00;99772.88;2082651;28;20196;-68
2022/02/26 00:40:08;;;;;;;90.55;48.67;;;;;;;-3.03;100.00;99775.88;2082433;28;20188;-67
2022/02/26 00:41:15;;;;;;;106.65;53.33;;;;;;;-3.04;100.00;99779.50;2082968;28;20294;-67
2022/02/26 00:42:19;;;;;;;107.22;55.10;;;;;;;-3.05;100.00;99777.84;2083157;28;20219;-68
2022/02/26 00:43:22;;;;;;;107.75;54.58;;;;;;;-3.03;100.00;99775.88;2090923;28;20222;-66
2022/02/26 00:44:28;;;;;;;107.95;54.22;;;;;;;-3.05;100.00;99775.25;2090498;28;20725;-67
2022/02/26 00:45:33;;;;;;;103.53;53.22;;;;;;;-3.06;100.00;99776.25;2082993;28;20545;-67
2022/02/26 00:46:35;;;;;;;102.82;52.10;;;;;;;-3.07;100.00;99779.06;2083229;28;20278;-67
2022/02/26 00:47:39;;;;;;;103.47;53.40;;;;;;;-3.11;100.00;99776.03;2083009;28;20199;-67
2022/02/26 00:50:02;;;;;;;104.35;53.15;;;;;;;-3.15;100.00;99774.78;2083009;28;20198;-67
2022/02/26 00:51:04;;;;;;;94.25;51.03;;;;;;;-3.16;100.00;99778.38;2082496;28;20195;-67
2022/02/26 00:52:11;;;;;;;101.80;52.63;;;;;;;-3.19;100.00;99776.16;2082965;28;20192;-68
2022/02/26 00:53:18;;;;;;;96.53;52.78;;;;;;;-3.20;100.00;99771.94;2083050;28;20275;-68
2022/02/26 00:54:19;;;;;;;107.13;53.47;;;;;;;-3.20;100.00;99777.16;2082916;28;20215;-68
2022/02/26 00:55:22;;;;;;;102.57;52.97;;;;;;;-3.20;100.00;99779.78;2082346;28;20274;-68
2022/02/26 00:56:23;;;;;;;100.05;51.72;;;;;;;-3.17;100.00;99787.22;2082118;28;20199;-67
2022/02/26 00:57:25;;;;;;;100.47;52.13;;;;;;;-3.13;100.00;99783.22;2082208;28;20200;-67
2022/02/26 00:58:28;;;;;;;93.95;51.03;;;;;;;-3.06;100.00;99786.69;2082344;28;20217;-67
2022/02/26 00:59:37;;;;;;;90.22;48.67;;;;;;;-2.98;100.00;99789.16;2083088;28;20195;-68
2022/02/26 01:00:43;;;;;;;88.97;47.83;;;;;;;-2.86;100.00;99785.03;2082539;28;20258;-68
2022/02/26 01:01:45;;;;;;;96.25;47.85;;;;;;;-2.80;100.00;99786.06;2081873;28;20662;-66
2022/02/26 01:02:48;;;;;;;97.63;49.65;;;;;;;-2.71;100.00;99792.75;2083042;28;20263;-68
2022/02/26 01:03:49;;;;;;;111.88;51.58;;;;;;;-2.68;100.00;99789.78;2082194;28;20571;-67
2022/02/26 01:04:51;;;;;;;96.95;51.95;;;;;;;-2.64;100.00;99785.75;2082283;28;20188;-68
2022/02/26 01:06:00;;;;;;;103.20;54.15;;;;;;;-2.59;100.00;99787.81;2081912;28;20323;-68
2022/02/26 01:07:04;;;;;;;104.72;53.58;;;;;;;-2.57;100.00;99785.81;2075486;28;20200;-67
2022/02/26 01:08:11;;;;;;;101.50;53.67;;;;;;;-2.57;100.00;99786.63;2082236;28;20222;-67
2022/02/26 01:09:15;;;;;;;90.00;48.40;;;;;;;-2.54;100.00;99789.84;2082802;28;20212;-66
2022/02/26 01:10:17;;;;;;;88.03;49.50;;;;;;;-2.56;100.00;99782.19;2082503;28;20203;-68
2022/02/26 01:11:21;;;;;;;88.50;51.22;;;;;;;-2.56;100.00;99785.59;2082300;28;20666;-67
2022/02/26 01:12:22;;;;;;;86.30;48.38;;;;;;;-2.56;100.00;99790.03;2082287;28;20206;-68
2022/02/26 01:13:31;;;;;;;86.38;49.17;;;;;;;-2.56;100.00;99783.00;2074299;28;20192;-68
2022/02/26 01:14:43;;;;;;;98.35;50.13;;;;;;;-2.56;100.00;99792.63;2075110;28;20208;-67
2022/02/26 01:15:48;;;;;;;96.68;48.78;;;;;;;-2.59;100.00;99787.81;2076052;28;20212;-67
2022/02/26 01:16:50;;;;;;;102.95;49.83;;;;;;;-2.59;100.00;99788.63;2082179;28;20211;-68
2022/02/26 01:17:54;;;;;;;103.70;54.95;;;;;;;-2.62;100.00;99788.97;2082050;28;20266;-67
2022/02/26 01:18:56;;;;;;;109.45;54.33;;;;;;;-2.63;100.00;99791.78;2082146;28;20211;-67
2022/02/26 01:19:59;;;;;;;124.97;60.38;;;;;;;-2.61;100.00;99795.84;2081989;28;20191;-68
2022/02/26 01:21:00;;;;;;;131.88;62.10;;;;;;;-2.60;100.00;99796.66;2081415;28;20631;-68
2022/02/26 01:22:09;;;;;;;130.63;62.67;;;;;;;-2.61;100.00;99790.63;2082399;28;20172;-67
2022/02/26 01:23:11;;;;;;;116.28;61.20;;;;;;;-2.66;100.00;99787.75;2081943;28;20567;-67
2022/02/26 01:24:13;;;;;;;124.18;62.88;;;;;;;-2.68;100.00;99789.78;2082028;28;20195;-67
2022/02/26 01:25:17;;;;;;;140.90;65.82;;;;;;;-2.71;100.00;99791.94;2082057;28;20704;-68
2022/02/26 01:26:21;;;;;;;124.50;65.03;;;;;;;-2.74;100.00;99789.72;2081957;28;20203;-67
2022/02/26 01:27:23;;;;;;;133.75;64.22;;;;;;;-2.76;100.00;99791.72;2082086;28;20202;-67
2022/02/26 01:28:32;;;;;;;121.38;62.20;;;;;;;-2.80;100.00;99788.66;2081790;28;20727;-67
2022/02/26 01:29:38;;;;;;;125.65;63.92;;;;;;;-2.81;100.00;99784.44;2074761;28;20798;-67
2022/02/26 01:30:39;;;;;;;123.28;62.95;;;;;;;-2.83;100.00;99796.09;2074155;28;20300;-66
2022/02/26 01:31:44;;;;;;;123.47;60.77;;;;;;;-2.86;100.00;99800.72;2082048;28;20227;-67
2022/02/26 01:32:47;;;;;;;104.18;54.60;;;;;;;-2.87;100.00;99795.66;2082695;28;20441;-67
2022/02/26 01:33:49;;;;;;;118.55;60.50;;;;;;;-2.92;100.00;99801.47;2082307;28;20223;-67
2022/02/26 01:34:54;;;;;;;124.10;63.42;;;;;;;-2.94;100.00;99803.47;2082132;28;20206;-67
2022/02/26 01:36:01;;;;;;;129.95;60.08;;;;;;;-2.96;100.00;99800.22;2081167;28;20207;-68
2022/02/26 01:37:05;;;;;;;105.32;58.47;;;;;;;-2.97;100.00;99790.75;2082055;28;20674;-67
2022/02/26 01:38:08;;;;;;;109.03;54.28;;;;;;;-3.01;100.00;99794.75;2082340;28;20294;-67
2022/02/26 01:39:12;;;;;;;118.97;56.67;;;;;;;-3.03;100.00;99795.97;2073893;28;20228;-67
2022/02/26 01:40:18;;;;;;;117.28;57.28;;;;;;;-3.08;100.00;99793.09;2082315;28;20271;-67
2022/02/26 01:41:19;;;;;;;117.47;58.00;;;;;;;-3.13;100.00;99785.81;2082659;28;20192;-67
2022/02/26 01:42:26;;;;;;;114.00;55.63;;;;;;;-3.13;100.00;99793.66;2082617;28;20196;-67
2022/02/26 01:43:33;;;;;;;110.85;56.45;;;;;;;-3.17;100.00;99797.66;2081903;28;20215;-67
2022/02/26 01:44:50;;;;;;;115.97;59.33;;;;;;;-3.22;100.00;99795.59;2081946;28;20669;-67
2022/02/26 01:45:53;;;;;;;124.40;59.83;;;;;;;-3.25;100.00;99800.38;2081862;28;20694;-67
2022/02/26 01:46:59;;;;;;;119.25;60.05;;;;;;;-3.27;100.00;99800.59;2081948;28;20198;-67
2022/02/26 01:48:00;;;;;;;116.22;59.15;;;;;;;-3.28;100.00;99792.94;2082668;28;20176;-67
2022/02/26 01:49:04;;;;;;;121.22;60.97;;;;;;;-3.30;100.00;99795.75;2081848;28;20262;-67
2022/02/26 01:50:07;;;;;;;110.10;59.17;;;;;;;-3.30;100.00;99800.13;2081904;28;20199;-66
2022/02/26 01:51:14;;;;;;;116.32;58.15;;;;;;;-3.36;100.00;99800.91;2082193;28;20242;-67
2022/02/26 01:52:21;;;;;;;123.28;61.85;;;;;;;-3.34;100.00;99802.31;2082055;28;20215;-67
2022/02/26 01:53:24;;;;;;;112.93;58.22;;;;;;;-3.39;100.00;99794.25;2082107;28;20230;-67
2022/02/26 01:54:27;;;;;;;122.97;59.72;;;;;;;-3.41;100.00;99801.44;2081842;28;20211;-67
2022/02/26 01:55:32;;;;;;;116.25;58.75;;;;;;;-3.42;100.00;99795.44;2081829;28;20555;-67
2022/02/26 01:56:40;;;;;;;115.47;58.92;;;;;;;-3.46;100.00;99796.81;2081717;28;20572;-67
2022/02/26 01:57:46;;;;;;;116.50;57.05;;;;;;;-3.45;100.00;99797.63;2081900;28;20192;-66
2022/02/26 01:58:51;;;;;;;107.10;55.78;;;;;;;-3.47;100.00;99800.41;2081582;28;20648;-67
2022/02/26 01:59:54;;;;;;;110.13;56.28;;;;;;;-3.49;100.00;99799.78;2081917;28;20195;-66
2022/02/26 02:01:00;;;;;;;117.40;57.08;;;;;;;-3.53;100.00;99795.94;2082234;28;20195;-67
2022/02/26 02:02:01;;;;;;;107.97;54.28;;;;;;;-3.52;100.00;99807.16;2082102;28;20200;-67
2022/02/26 02:03:04;;;;;;;96.65;51.95;;;;;;;-3.56;100.00;99798.94;2081760;28;20203;-67
2022/02/26 02:04:06;;;;;;;90.75;50.83;;;;;;;-3.56;100.00;99798.94;2082067;28;20191;-67
2022/02/26 02:05:15;;;;;;;104.82;49.70;;;;;;;-3.58;100.00;99798.28;2089987;28;20288;-67
2022/02/26 02:06:22;;;;;;;95.72;49.75;;;;;;;-3.56;100.00;99806.75;2088488;28;20226;-68
2022/02/26 02:07:24;;;;;;;88.65;48.42;;;;;;;-3.56;100.00;99800.69;2082383;28;20196;-67
2022/02/26 02:08:26;;;;;;;95.20;50.65;;;;;;;-3.56;100.00;99801.53;2082381;28;20544;-68
2022/02/26 02:09:32;;;;;;;109.13;52.88;;;;;;;-3.54;100.00;99807.38;2082583;28;20231;-67
2022/02/26 02:10:40;;;;;;;102.25;51.67;;;;;;;-3.46;100.00;99796.00;2089926;28;20720;-67
2022/02/26 02:11:49;;;;;;;102.00;52.72;;;;;;;-3.41;100.00;99799.66;2081925;28;20235;-68
2022/02/26 02:12:54;;;;;;;100.88;50.60;;;;;;;-3.36;100.00;99798.28;2082172;28;20255;-67
2022/02/26 02:14:00;;;;;;;93.00;50.90;;;;;;;-3.35;100.00;99797.28;2082024;28;20249;-67
2022/02/26 02:15:01;;;;;;;88.53;49.63;;;;;;;-3.32;100.00;99796.91;2074683;28;20254;-67
2022/02/26 02:16:04;;;;;;;99.97;51.17;;;;;;;-3.27;100.00;99802.38;2073500;28;20283;-67
2022/02/26 02:17:07;;;;;;;91.25;48.67;;;;;;;-3.26;100.00;99798.78;2073762;28;20718;-67
2022/02/26 02:18:17;;;;;;;98.75;49.55;;;;;;;-3.24;100.00;99799.38;2081687;28;20187;-67
2022/02/26 02:19:19;;;;;;;92.93;49.38;;;;;;;-3.24;100.00;99802.81;2082003;28;20200;-67
2022/02/26 02:20:26;;;;;;;98.38;51.90;;;;;;;-3.25;100.00;99798.59;2081643;28;20202;-67
2022/02/26 02:21:29;;;;;;;104.70;52.28;;;;;;;-3.27;100.00;99800.59;2081496;28;20223;-67
2022/02/26 02:22:33;;;;;;;101.60;51.35;;;;;;;-3.33;100.00;99803.94;2081799;28;20195;-67
2022/02/26 02:23:37;;;;;;;100.00;50.20;;;;;;;-3.34;100.00;99801.50;2081621;28;20573;-67
2022/02/26 02:24:43;;;;;;;95.80;49.05;;;;;;;-3.37;100.00;99799.28;2081670;28;20192;-67
2022/02/26 02:25:47;;;;;;;85.85;47.90;;;;;;;-3.39;100.00;99794.25;2082484;28;20199;-67
2022/02/26 02:26:57;;;;;;;92.72;49.33;;;;;;;-3.38;100.00;99797.69;2082189;28;20714;-67
2022/02/26 02:28:02;;;;;;;94.43;49.03;;;;;;;-3.43;100.00;99791.22;2082550;28;20623;-67
2022/02/26 02:29:05;;;;;;;89.97;49.47;;;;;;;-3.40;100.00;99803.06;2082255;28;20578;-66
2022/02/26 02:30:09;;;;;;;89.80;49.10;;;;;;;-3.45;100.00;99798.41;2081826;28;20203;-67
2022/02/26 02:31:15;;;;;;;84.35;48.22;;;;;;;-3.45;100.00;99811.47;2081657;28;20233;-66
2022/02/26 02:32:18;;;;;;;90.82;49.03;;;;;;;-3.46;100.00;99816.88;2081457;28;20647;-67
2022/02/26 02:33:25;;;;;;;92.55;49.42;;;;;;;-3.44;100.00;99810.47;2073364;28;20227;-66
2022/02/26 02:34:28;;;;;;;95.07;50.38;;;;;;;-3.37;100.00;99810.53;2081896;28;20183;-66
2022/02/26 02:35:34;;;;;;;92.95;53.15;;;;;;;-3.34;100.00;99812.75;2089635;28;20291;-66
2022/02/26 02:36:42;;;;;;;91.80;49.22;;;;;;;-3.29;100.00;99809.59;2089194;28;20302;-66
2022/02/26 02:37:50;;;;;;;90.20;50.28;;;;;;;-3.24;100.00;99817.66;2082271;28;20254;-67
2022/02/26 02:38:56;;;;;;;96.05;51.10;;;;;;;-3.27;100.00;99810.22;2082089;28;20536;-66
2022/02/26 02:40:01;;;;;;;94.70;51.25;;;;;;;-3.29;100.00;99809.59;2082123;28;20180;-66
2022/02/26 02:41:06;;;;;;;91.82;50.80;;;;;;;-3.29;100.00;99812.22;2081718;28;20242;-67
2022/02/26 02:42:09;;;;;;;96.65;50.70;;;;;;;-3.32;100.00;99813.38;2073867;28;20583;-67
2022/02/26 02:43:14;;;;;;;100.35;51.78;;;;;;;-3.33;100.00;99816.16;2074023;28;20200;-68
2022/02/26 02:44:20;;;;;;;95.10;50.60;;;;;;;-3.36;100.00;99812.13;2081627;28;20191;-67
2022/02/26 02:45:29;;;;;;;94.43;51.13;;;;;;;-3.37;100.00;99817.56;2082263;28;20191;-67
2022/02/26 02:46:36;;;;;;;102.03;50.40;;;;;;;-3.39;100.00;99812.50;2082241;28;20175;-67
2022/02/26 02:47:43;;;;;;;97.93;50.55;;;;;;;-3.42;100.00;99802.44;2082308;28;20192;-67
2022/02/26 02:48:49;;;;;;;95.70;49.97;;;;;;;-3.43;100.00;99814.69;2081988;28;20286;-66
2022/02/26 02:49:50;;;;;;;86.20;48.78;;;;;;;-3.45;100.00;99808.84;2082153;28;20220;-66
2022/02/26 02:50:52;;;;;;;97.47;51.33;;;;;;;-3.45;100.00;99815.88;2089583;28;20669;-67
2022/02/26 02:52:00;;;;;;;90.20;50.13;;;;;;;-3.46;100.00;99812.47;2089330;28;20301;-66
2022/02/26 02:53:06;;;;;;;102.90;49.70;;;;;;;-3.49;100.00;99818.03;2082151;28;20180;-66
2022/02/26 02:54:12;;;;;;;99.07;50.22;;;;;;;-3.52;100.00;99807.97;2081805;28;20632;-66
2022/02/26 02:55:21;;;;;;;95.32;48.65;;;;;;;-3.52;100.00;99809.78;2081524;28;20195;-67
2022/02/26 02:56:24;;;;;;;92.07;49.28;;;;;;;-3.53;100.00;99819.41;2081711;28;20257;-67
2022/02/26 02:57:27;;;;;;;95.93;49.83;;;;;;;-3.49;100.00;99818.03;2072930;28;20211;-67
2022/02/26 02:58:35;;;;;;;97.97;50.78;;;;;;;-3.43;100.00;99813.88;2081275;28;20530;-67
2022/02/26 02:59:38;;;;;;;90.82;47.45;;;;;;;-3.39;100.00;99822.13;2081924;28;20199;-66
2022/02/26 03:00:47;;;;;;;99.40;51.38;;;;;;;-3.33;100.00;99821.38;2073825;28;20745;-67
2022/02/26 03:01:55;;;;;;;103.25;51.80;;;;;;;-3.27;100.00;99820.66;2081418;28;20204;-67
2022/02/26 03:02:59;;;;;;;97.18;51.38;;;;;;;-3.16;100.00;99820.94;2081461;28;20195;-66
2022/02/26 03:04:00;;;;;;;98.25;50.40;;;;;;;-3.14;100.00;99825.97;2082102;28;20218;-66
2022/02/26 03:05:02;;;;;;;95.00;50.23;;;;;;;-3.12;100.00;99829.22;2082065;28;20184;-67
2022/02/26 03:06:08;;;;;;;100.85;50.30;;;;;;;-3.10;100.00;99826.41;2081878;28;20543;-66
2022/02/26 03:07:13;;;;;;;100.13;49.22;;;;;;;-3.06;100.00;99822.41;2081551;28;20673;-67
2022/02/26 03:08:24;;;;;;;107.00;52.40;;;;;;;-3.04;100.00;99830.84;2081446;28;20572;-66
2022/02/26 03:09:27;;;;;;;97.55;49.28;;;;;;;-3.02;100.00;99829.69;2082034;28;20291;-67
2022/02/26 03:10:30;;;;;;;113.68;52.17;;;;;;;-3.00;100.00;99832.91;2089560;28;20202;-66
2022/02/26 03:11:32;;;;;;;93.88;51.35;;;;;;;-3.00;100.00;99830.31;2089635;28;20195;-67
2022/02/26 03:12:39;;;;;;;96.70;51.30;;;;;;;-2.97;100.00;99835.13;2081457;28;20250;-67
2022/02/26 03:13:45;;;;;;;99.13;51.97;;;;;;;-2.94;100.00;99828.75;2081488;28;20195;-67
2022/02/26 03:14:48;;;;;;;100.22;52.70;;;;;;;-2.94;100.00;99831.38;2082181;28;20184;-68
2022/02/26 03:15:58;;;;;;;108.07;53.55;;;;;;;-2.90;100.00;99832.59;2081895;28;20219;-67
2022/02/26 03:17:02;;;;;;;99.57;52.05;;;;;;;-2.87;100.00;99835.66;2089543;28;20214;-67
2022/02/26 03:18:07;;;;;;;102.75;52.40;;;;;;;-2.86;100.00;99832.03;2081873;28;20196;-67
2022/02/26 03:19:11;;;;;;;100.07;51.03;;;;;;;-2.89;100.00;99835.00;2081678;28;20207;-67
2022/02/26 03:20:18;;;;;;;103.45;51.08;;;;;;;-2.91;100.00;99837.00;2081521;28;20187;-67
2022/02/26 03:21:23;;;;;;;92.60;50.50;;;;;;;-2.93;100.00;99835.59;2081901;28;20243;-67
2022/02/26 03:22:32;;;;;;;96.57;50.30;;;;;;;-2.95;100.00;99838.41;2081939;28;20254;-67
2022/02/26 03:23:37;;;;;;;100.82;50.88;;;;;;;-2.99;100.00;99838.94;2081477;28;20685;-68
2022/02/26 03:24:40;;;;;;;93.55;50.47;;;;;;;-3.01;100.00;99846.97;2081717;28;20195;-67
2022/02/26 03:25:44;;;;;;;93.22;49.15;;;;;;;-3.05;100.00;99844.91;2081488;28;20283;-67
2022/02/26 03:26:53;;;;;;;88.57;49.58;;;;;;;-3.10;100.00;99849.91;2081556;28;20203;-66
2022/02/26 03:27:59;;;;;;;103.80;49.78;;;;;;;-3.16;100.00;99838.41;2081692;28;20219;-67
2022/02/26 03:29:01;;;;;;;93.78;48.80;;;;;;;-3.16;100.00;99851.44;2081950;28;20680;-66
2022/02/26 03:30:07;;;;;;;86.20;46.53;;;;;;;-3.19;100.00;99844.00;2081066;28;20243;-67
2022/02/26 03:31:09;;;;;;;81.75;46.28;;;;;;;-3.28;100.00;99850.34;2081294;28;20626;-68
2022/02/26 03:32:13;;;;;;;86.07;48.03;;;;;;;-3.37;100.00;99851.47;2081370;28;20249;-66
2022/02/26 03:33:19;;;;;;;97.38;48.20;;;;;;;-3.47;100.00;99849.16;2074001;28;20241;-66
2022/02/26 03:34:26;;;;;;;87.93;46.70;;;;;;;-3.51;100.00;99851.31;2081265;28;20204;-67
2022/02/26 03:35:32;;;;;;;90.15;48.50;;;;;;;-3.56;100.00;99850.25;2081457;28;20243;-67
2022/02/26 03:36:36;;;;;;;97.80;48.40;;;;;;;-3.64;100.00;99851.19;2081211;28;20314;-66
2022/02/26 03:37:41;;;;;;;83.00;46.58;;;;;;;-3.68;100.00;99852.53;2081343;28;20195;-66
2022/02/26 03:38:44;;;;;;;88.03;47.13;;;;;;;-3.73;100.00;99858.31;2081907;28;20601;-66
2022/02/26 03:39:47;;;;;;;94.63;47.53;;;;;;;-3.79;100.00;99853.03;2089574;28;20187;-67
2022/02/26 03:40:52;;;;;;;89.35;48.35;;;;;;;-3.83;100.00;99857.78;2089535;28;20207;-67
2022/02/26 03:41:59;;;;;;;102.22;48.67;;;;;;;-3.86;100.00;99854.75;2082224;28;20172;-67
2022/02/26 03:43:03;;;;;;;91.28;49.25;;;;;;;-3.92;100.00;99860.66;2081246;28;20231;-67
2022/02/26 03:44:10;;;;;;;95.68;49.58;;;;;;;-3.96;100.00;99854.22;2081217;28;20188;-67
2022/02/26 03:45:13;;;;;;;97.57;49.13;;;;;;;-4.01;100.00;99855.56;2081990;28;20188;-67
2022/02/26 03:46:15;;;;;;;98.75;50.13;;;;;;;-4.03;100.00;99861.94;2081849;28;20191;-67
2022/02/26 03:47:22;;;;;;;99.15;49.55;;;;;;;-4.05;100.00;99863.94;2082141;28;20275;-67
2022/02/26 03:48:28;;;;;;;100.90;49.47;;;;;;;-4.09;100.00;99863.47;2081863;28;20662;-67
2022/02/26 03:49:37;;;;;;;100.18;50.75;;;;;;;-4.11;100.00;99865.47;2081811;28;20200;-66
2022/02/26 03:50:45;;;;;;;103.15;51.58;;;;;;;-4.14;100.00;99865.81;2081213;28;20202;-67
2022/02/26 03:51:47;;;;;;;95.03;52.08;;;;;;;-4.17;100.00;99867.97;2081107;28;20314;-67
2022/02/26 03:52:49;;;;;;;100.72;50.92;;;;;;;-4.18;100.00;99861.16;2081776;28;20195;-67
2022/02/26 03:53:51;;;;;;;103.45;52.92;;;;;;;-4.19;100.00;99864.75;2089458;28;20207;-67
2022/02/26 03:54:57;;;;;;;97.57;51.20;;;;;;;-4.21;100.00;99870.13;2089300;28;20230;-67
2022/02/26 03:56:04;;;;;;;98.55;51.25;;;;;;;-4.21;100.00;99869.34;2081814;28;20205;-67
2022/02/26 03:57:07;;;;;;;101.25;51.63;;;;;;;-4.23;100.00;99872.13;2081468;28;20207;-67
2022/02/26 03:58:13;;;;;;;97.35;51.72;;;;;;;-4.22;100.00;99868.53;2081163;28;20258;-67
2022/02/26 03:59:15;;;;;;;101.88;51.40;;;;;;;-4.19;100.00;99873.38;2081872;28;20195;-67
2022/02/26 04:00:19;;;;;;;94.47;51.20;;;;;;;-4.16;100.00;99880.84;2081153;28;20366;-67
2022/02/26 04:01:23;;;;;;;89.28;50.22;;;;;;;-4.15;100.00;99885.06;2081115;28;20648;-66
2022/02/26 04:02:28;;;;;;;101.13;51.90;;;;;;;-4.11;100.00;99878.47;2073443;28;20646;-67
2022/02/26 04:03:34;;;;;;;90.10;48.13;;;;;;;-4.09;100.00;99879.09;2074127;28;20224;-67
2022/02/26 04:04:40;;;;;;;98.38;52.10;;;;;;;-4.02;100.00;99884.41;2081048;28;20218;-67
2022/02/26 04:05:45;;;;;;;103.53;52.63;;;;;;;-3.94;100.00;99873.88;2073879;28;20208;-66
2022/02/26 04:06:50;;;;;;;106.82;53.33;;;;;;;-3.85;100.00;99885.03;2081089;28;20219;-67
2022/02/26 04:07:51;;;;;;;104.90;53.45;;;;;;;-3.80;100.00;99882.69;2089386;28;20302;-67
2022/02/26 04:09:02;;;;;;;106.30;54.27;;;;;;;-3.75;100.00;99886.34;2089717;28;20637;-67
2022/02/26 04:10:05;;;;;;;108.72;54.38;;;;;;;-3.69;100.00;99877.00;2082571;28;20999;-67
2022/02/26 04:11:12;;;;;;;110.78;52.50;;;;;;;-3.69;100.00;99884.81;2075234;28;20201;-67
2022/02/26 04:12:19;;;;;;;110.20;55.38;;;;;;;-3.65;100.00;99890.47;2075198;28;20224;-67
2022/02/26 04:13:25;;;;;;;101.20;52.17;;;;;;;-3.61;100.00;99884.72;2082698;28;20207;-68
2022/02/26 04:14:28;;;;;;;110.13;56.17;;;;;;;-3.57;100.00;99885.94;2082657;28;20761;-67
2022/02/26 04:15:36;;;;;;;111.07;57.15;;;;;;;-3.52;100.00;99881.00;2082578;28;20592;-67
2022/02/26 04:16:41;;;;;;;113.50;56.83;;;;;;;-3.51;100.00;99893.03;2082686;28;20257;-66
2022/02/26 04:17:47;;;;;;;119.03;58.42;;;;;;;-3.50;100.00;99889.44;2083198;28;20187;-67
2022/02/26 04:18:57;;;;;;;114.22;60.08;;;;;;;-3.50;100.00;99886.84;2081896;28;20229;-67
2022/02/26 04:20:01;;;;;;;119.07;61.03;;;;;;;-3.49;100.00;99900.69;2082734;28;20192;-66
2022/02/26 04:21:05;;;;;;;122.60;58.55;;;;;;;-3.53;100.00;99897.66;2081963;28;20286;-67
2022/02/26 04:22:11;;;;;;;118.20;58.75;;;;;;;-3.55;100.00;99901.44;2082903;28;20604;-67
2022/02/26 04:23:17;;;;;;;122.80;59.00;;;;;;;-3.61;100.00;99900.34;2089909;28;20201;-67
2022/02/26 04:24:25;;;;;;;113.63;57.55;;;;;;;-3.65;100.00;99899.09;2083210;28;20192;-66
2022/02/26 04:25:29;;;;;;;122.75;60.35;;;;;;;-3.68;100.00;99902.06;2082523;28;20567;-67
2022/02/26 04:26:39;;;;;;;124.22;59.75;;;;;;;-3.72;100.00;99903.44;2082651;28;20215;-67
2022/02/26 04:27:40;;;;;;;123.65;59.25;;;;;;;-3.74;100.00;99908.00;2082777;28;20204;-67
2022/02/26 04:28:44;;;;;;;125.83;59.80;;;;;;;-3.78;100.00;99907.59;2082765;28;20204;-67
2022/02/26 04:29:47;;;;;;;120.88;60.55;;;;;;;-3.81;100.00;99907.16;2090362;28;20195;-67
2022/02/26 04:30:57;;;;;;;115.13;61.03;;;;;;;-3.82;100.00;99905.50;2082352;28;20286;-67
2022/02/26 04:32:06;;;;;;;121.07;59.08;;;;;;;-3.85;100.00;99904.06;2075912;28;20274;-67
2022/02/26 04:33:12;;;;;;;131.52;60.88;;;;;;;-3.88;100.00;99908.84;2075409;28;20200;-67
2022/02/26 04:34:14;;;;;;;118.45;58.35;;;;;;;-3.90;100.00;99910.84;2082855;28;20685;-67
2022/02/26 04:35:19;;;;;;;117.85;58.58;;;;;;;-3.91;100.00;99911.81;2082716;28;20211;-67
2022/02/26 04:36:26;;;;;;;126.40;61.75;;;;;;;-3.92;100.00;99904.97;2082080;28;20235;-67
2022/02/26 04:37:32;;;;;;;119.45;60.20;;;;;;;-3.93;100.00;99916.41;2082358;28;20299;-67
2022/02/26 04:38:40;;;;;;;121.25;60.40;;;;;;;-3.95;100.00;99915.78;2074861;28;20286;-67
2022/02/26 04:39:50;;;;;;;120.20;59.58;;;;;;;-3.96;100.00;99914.97;2074997;28;20597;-67
2022/02/26 04:40:53;;;;;;;116.28;59.42;;;;;;;-3.97;100.00;99913.34;2082560;28;20568;-66
2022/02/26 04:41:55;;;;;;;114.03;59.35;;;;;;;-3.99;100.00;99916.16;2083170;28;20188;-67
2022/02/26 04:42:57;;;;;;;119.10;59.83;;;;;;;-4.01;100.00;99912.88;2083278;28;20634;-67
2022/02/26 04:44:05;;;;;;;121.15;60.08;;;;;;;-4.03;100.00;99914.88;2082647;28;20204;-67
2022/02/26 04:45:11;;;;;;;120.38;61.05;;;;;;;-4.04;100.00;99913.25;2082525;28;20179;-67
2022/02/26 04:46:22;;;;;;;127.43;60.67;;;;;;;-4.06;100.00;99919.66;2082313;28;20210;-67
2022/02/26 04:47:27;;;;;;;119.50;60.22;;;;;;;-4.07;100.00;99918.84;2082803;28;20227;-67
2022/02/26 04:48:30;;;;;;;131.13;60.63;;;;;;;-4.08;100.00;99914.63;2082932;28;20279;-67
2022/02/26 04:49:31;;;;;;;119.63;59.97;;;;;;;-4.08;100.00;99924.25;2083042;28;20238;-67
2022/02/26 04:50:34;;;;;;;129.50;61.13;;;;;;;-4.10;100.00;99929.59;2082252;28;20223;-68
2022/02/26 04:51:41;;;;;;;120.00;59.88;;;;;;;-4.09;100.00;99936.44;2082171;28;20362;-68
2022/02/26 04:52:50;;;;;;;134.13;63.53;;;;;;;-4.03;100.00;99934.91;2082907;28;20609;-68
2022/02/26 04:53:59;;;;;;;127.80;61.97;;;;;;;-3.94;100.00;99935.63;2082908;28;20226;-67
2022/02/26 04:55:03;;;;;;;113.03;60.15;;;;;;;-3.89;100.00;99933.31;2082256;28;20209;-67
2022/02/26 04:56:06;;;;;;;116.47;58.17;;;;;;;-3.84;100.00;99939.56;2074292;28;20285;-67